sensor_id;sensor_type;location;lat;lon;timestamp;pressure;altitude;pressure_sealevel;temperature;humidity
49341;BME280;35209;51.050;13.678;2023-07-31T00:01:08;152935.28;;;16.88;68.33
49341;BME280;35209;51.050;13.678;2023-07-31T00:06:09;152917.13;;;16.81;69.60
49341;BME280;35209;51.050;13.678;2023-07-31T00:11:11;152946.97;;;16.93;67.61
49341;BME280;35209;51.050;13.678;2023-07-31T00:16:13;152950.84;;;16.95;66.90
49341;BME280;35209;51.050;13.678;2023-07-31T00:21:15;152939.16;;;16.90;67.19
49341;BME280;35209;51.050;13.678;2023-07-31T00:26:17;152948.25;;;16.94;67.09
49341;BME280;35209;51.050;13.678;2023-07-31T00:31:19;152969.03;;;17.02;66.49
49341;BME280;35209;51.050;13.678;2023-07-31T00:36:22;152967.72;;;17.01;66.15
49341;BME280;35209;51.050;13.678;2023-07-31T00:41:24;152983.28;;;17.07;65.54
49341;BME280;35209;51.050;13.678;2023-07-31T00:46:25;153006.63;;;17.17;64.76
49341;BME280;35209;51.050;13.678;2023-07-31T00:51:27;153001.47;;;17.14;64.73
49341;BME280;35209;51.050;13.678;2023-07-31T00:56:30;153001.47;;;17.14;64.57
49341;BME280;35209;51.050;13.678;2023-07-31T01:01:32;152984.56;;;17.08;64.67
49341;BME280;35209;51.050;13.678;2023-07-31T01:06:45;153002.75;;;17.15;64.06
49341;BME280;35209;51.050;13.678;2023-07-31T01:11:57;152978.13;;;17.05;64.40
49341;BME280;35209;51.050;13.678;2023-07-31T01:16:59;152975.47;;;17.04;64.61
49341;BME280;35209;51.050;13.678;2023-07-31T01:27:34;152949.56;;;16.94;64.68
49341;BME280;35209;51.050;13.678;2023-07-31T01:32:43;152946.97;;;16.93;65.18
49341;BME280;35209;51.050;13.678;2023-07-31T01:37:45;152940.47;;;16.90;64.87
49341;BME280;35209;51.050;13.678;2023-07-31T01:42:47;152926.22;;;16.85;65.40
49341;BME280;35209;51.050;13.678;2023-07-31T01:47:49;152945.69;;;16.93;64.99
49341;BME280;35209;51.050;13.678;2023-07-31T01:52:51;152922.34;;;16.83;65.14
49341;BME280;35209;51.050;13.678;2023-07-31T01:57:53;152950.84;;;16.95;64.16
49341;BME280;35209;51.050;13.678;2023-07-31T02:02:55;152958.66;;;16.98;64.30
49341;BME280;35209;51.050;13.678;2023-07-31T02:07:57;152945.69;;;16.93;64.66
49341;BME280;35209;51.050;13.678;2023-07-31T02:13:01;152974.19;;;17.04;64.34
49341;BME280;35209;51.050;13.678;2023-07-31T02:18:05;153009.22;;;17.18;62.86
49341;BME280;35209;51.050;13.678;2023-07-31T02:23:06;153015.72;;;17.20;62.68
49341;BME280;35209;51.050;13.678;2023-07-31T02:28:09;153011.84;;;17.19;63.56
49341;BME280;35209;51.050;13.678;2023-07-31T02:33:10;153039.06;;;17.29;62.46
49341;BME280;35209;51.050;13.678;2023-07-31T02:38:12;153024.81;;;17.24;63.58
49341;BME280;35209;51.050;13.678;2023-07-31T02:43:14;153018.31;;;17.21;62.72
49341;BME280;35209;51.050;13.678;2023-07-31T02:48:15;153040.38;;;17.30;62.51
49341;BME280;35209;51.050;13.678;2023-07-31T02:53:17;153022.22;;;17.23;62.79
49341;BME280;35209;51.050;13.678;2023-07-31T02:58:19;153014.44;;;17.20;62.63
49341;BME280;35209;51.050;13.678;2023-07-31T03:03:21;152997.53;;;17.13;63.49
49341;BME280;35209;51.050;13.678;2023-07-31T03:08:23;153006.63;;;17.17;62.67
49341;BME280;35209;51.050;13.678;2023-07-31T03:13:25;152993.66;;;17.11;63.58
49341;BME280;35209;51.050;13.678;2023-07-31T03:18:26;152985.88;;;17.08;64.27
49341;BME280;35209;51.050;13.678;2023-07-31T03:23:28;152965.16;;;17.00;65.90
49341;BME280;35209;51.050;13.678;2023-07-31T03:28:30;152934.00;;;16.88;68.69
49341;BME280;35209;51.050;13.678;2023-07-31T03:33:32;152939.16;;;16.90;70.49
49341;BME280;35209;51.050;13.678;2023-07-31T03:38:34;152895.06;;;16.73;75.17
49341;BME280;35209;51.050;13.678;2023-07-31T03:43:37;152850.91;;;16.55;80.85
49341;BME280;35209;51.050;13.678;2023-07-31T03:48:38;152808.16;;;16.38;85.26
49341;BME280;35209;51.050;13.678;2023-07-31T03:53:40;152766.66;;;16.22;88.20
49341;BME280;35209;51.050;13.678;2023-07-31T03:58:42;152755.00;;;16.18;88.38
49341;BME280;35209;51.050;13.678;2023-07-31T04:03:43;152767.97;;;16.23;89.18
49341;BME280;35209;51.050;13.678;2023-07-31T04:08:45;152755.00;;;16.18;89.84
49341;BME280;35209;51.050;13.678;2023-07-31T04:13:47;152749.78;;;16.15;93.75
49341;BME280;35209;51.050;13.678;2023-07-31T04:18:49;152714.78;;;16.02;96.54
49341;BME280;35209;51.050;13.678;2023-07-31T04:23:50;152651.31;;;15.77;99.95
49341;BME280;35209;51.050;13.678;2023-07-31T04:28:52;152614.94;;;15.62;100.00
49341;BME280;35209;51.050;13.678;2023-07-31T04:33:54;152613.63;;;15.62;100.00
49341;BME280;35209;51.050;13.678;2023-07-31T04:38:56;152608.47;;;15.60;100.00
49341;BME280;35209;51.050;13.678;2023-07-31T04:43:58;152604.59;;;15.58;100.00
49341;BME280;35209;51.050;13.678;2023-07-31T04:49:00;152626.69;;;15.67;100.00
49341;BME280;35209;51.050;13.678;2023-07-31T04:54:02;152599.41;;;15.56;100.00
49341;BME280;35209;51.050;13.678;2023-07-31T04:59:03;152627.97;;;15.68;100.00
49341;BME280;35209;51.050;13.678;2023-07-31T05:04:05;152638.34;;;15.72;100.00
49341;BME280;35209;51.050;13.678;2023-07-31T05:09:07;152656.47;;;15.79;100.00
49341;BME280;35209;51.050;13.678;2023-07-31T05:14:10;152699.25;;;15.96;100.00
49341;BME280;35209;51.050;13.678;2023-07-31T05:19:12;152708.34;;;15.99;100.00
49341;BME280;35209;51.050;13.678;2023-07-31T05:24:14;152725.16;;;16.06;100.00
49341;BME280;35209;51.050;13.678;2023-07-31T05:29:16;152732.97;;;16.09;100.00
49341;BME280;35209;51.050;13.678;2023-07-31T05:34:18;152743.31;;;16.13;100.00
49341;BME280;35209;51.050;13.678;2023-07-31T05:39:19;152764.09;;;16.21;100.00
49341;BME280;35209;51.050;13.678;2023-07-31T05:44:21;152771.81;;;16.24;99.81
49341;BME280;35209;51.050;13.678;2023-07-31T05:49:23;152797.78;;;16.34;99.90
49341;BME280;35209;51.050;13.678;2023-07-31T05:54:25;152806.88;;;16.38;98.61
49341;BME280;35209;51.050;13.678;2023-07-31T05:59:26;152825.00;;;16.45;99.08
49341;BME280;35209;51.050;13.678;2023-07-31T06:04:28;152826.28;;;16.46;97.41
49341;BME280;35209;51.050;13.678;2023-07-31T06:09:30;152854.84;;;16.57;95.58
49341;BME280;35209;51.050;13.678;2023-07-31T06:14:32;152862.59;;;16.60;96.90
49341;BME280;35209;51.050;13.678;2023-07-31T06:19:34;152870.38;;;16.63;97.01
49341;BME280;35209;51.050;13.678;2023-07-31T06:24:36;152914.53;;;16.80;94.04
49341;BME280;35209;51.050;13.678;2023-07-31T06:29:37;152927.50;;;16.85;94.27
49341;BME280;35209;51.050;13.678;2023-07-31T06:34:39;152963.81;;;17.00;92.15
49341;BME280;35209;51.050;13.678;2023-07-31T06:39:41;152967.72;;;17.01;94.17
49341;BME280;35209;51.050;13.678;2023-07-31T06:44:42;152946.97;;;16.93;94.31
49341;BME280;35209;51.050;13.678;2023-07-31T06:49:44;152950.84;;;16.95;94.50
49341;BME280;35209;51.050;13.678;2023-07-31T06:55:00;153007.91;;;17.17;92.80
49341;BME280;35209;51.050;13.678;2023-07-31T07:00:03;153005.34;;;17.16;91.87
49341;BME280;35209;51.050;13.678;2023-07-31T07:05:06;153037.78;;;17.29;89.70
49341;BME280;35209;51.050;13.678;2023-07-31T07:10:09;153078.03;;;17.45;88.89
49341;BME280;35209;51.050;13.678;2023-07-31T07:15:11;153096.16;;;17.52;87.79
49341;BME280;35209;51.050;13.678;2023-07-31T07:20:12;153144.16;;;17.71;86.54
49341;BME280;35209;51.050;13.678;2023-07-31T07:25:14;153184.47;;;17.86;83.10
49341;BME280;35209;51.050;13.678;2023-07-31T07:30:16;153215.63;;;17.99;82.93
49341;BME280;35209;51.050;13.678;2023-07-31T07:35:19;153271.47;;;18.21;81.87
49341;BME280;35209;51.050;13.678;2023-07-31T07:40:21;153270.16;;;18.20;82.49
49341;BME280;35209;51.050;13.678;2023-07-31T07:45:23;153318.19;;;18.39;79.87
49341;BME280;35209;51.050;13.678;2023-07-31T07:50:24;153312.97;;;18.37;77.04
49341;BME280;35209;51.050;13.678;2023-07-31T07:55:26;153323.34;;;18.41;79.38
49341;BME280;35209;51.050;13.678;2023-07-31T08:00:28;153357.13;;;18.54;77.63
49341;BME280;35209;51.050;13.678;2023-07-31T08:05:30;153407.84;;;18.74;77.11
49341;BME280;35209;51.050;13.678;2023-07-31T08:10:35;153437.72;;;18.86;74.63
49341;BME280;35209;51.050;13.678;2023-07-31T08:15:37;153487.06;;;19.05;73.02
49341;BME280;35209;51.050;13.678;2023-07-31T08:20:39;153535.13;;;19.24;73.49
49341;BME280;35209;51.050;13.678;2023-07-31T08:25:40;153566.31;;;19.36;71.51
49341;BME280;35209;51.050;13.678;2023-07-31T08:30:42;153570.19;;;19.38;70.42
49341;BME280;35209;51.050;13.678;2023-07-31T08:35:44;153520.84;;;19.19;70.49
49341;BME280;35209;51.050;13.678;2023-07-31T08:40:46;153488.38;;;19.06;72.56
49341;BME280;35209;51.050;13.678;2023-07-31T08:45:47;153492.25;;;19.07;71.84
49341;BME280;35209;51.050;13.678;2023-07-31T08:50:52;153470.16;;;18.99;71.31
49341;BME280;35209;51.050;13.678;2023-07-31T08:55:56;153440.31;;;18.87;72.27
49341;BME280;35209;51.050;13.678;2023-07-31T09:01:01;153474.09;;;19.00;70.39
49341;BME280;35209;51.050;13.678;2023-07-31T09:06:05;153463.69;;;18.96;71.09
49341;BME280;35209;51.050;13.678;2023-07-31T09:11:08;153454.59;;;18.93;71.26
49341;BME280;35209;51.050;13.678;2023-07-31T09:16:09;153470.16;;;18.99;68.44
49341;BME280;35209;51.050;13.678;2023-07-31T09:21:11;153476.69;;;19.01;70.69
49341;BME280;35209;51.050;13.678;2023-07-31T09:31:42;153503.94;;;19.12;69.29
49341;BME280;35209;51.050;13.678;2023-07-31T09:36:46;153507.88;;;19.13;69.88
49341;BME280;35209;51.050;13.678;2023-07-31T09:41:54;153503.94;;;19.12;68.64
49341;BME280;35209;51.050;13.678;2023-07-31T09:46:56;153518.25;;;19.18;66.72
49341;BME280;35209;51.050;13.678;2023-07-31T09:51:58;153533.84;;;19.24;67.70
49341;BME280;35209;51.050;13.678;2023-07-31T09:57:00;153540.34;;;19.26;67.79
49341;BME280;35209;51.050;13.678;2023-07-31T10:02:02;153580.59;;;19.42;67.05
49341;BME280;35209;51.050;13.678;2023-07-31T10:07:04;153567.63;;;19.37;68.58
49341;BME280;35209;51.050;13.678;2023-07-31T10:12:08;153618.31;;;19.57;67.88
49341;BME280;35209;51.050;13.678;2023-07-31T10:17:13;153614.38;;;19.55;67.08
49341;BME280;35209;51.050;13.678;2023-07-31T10:22:16;153663.84;;;19.75;66.18
49341;BME280;35209;51.050;13.678;2023-07-31T10:27:20;153687.22;;;19.84;65.12
49341;BME280;35209;51.050;13.678;2023-07-31T10:32:22;153693.72;;;19.86;65.73
49341;BME280;35209;51.050;13.678;2023-07-31T10:37:29;153730.09;;;20.01;66.57
49341;BME280;35209;51.050;13.678;2023-07-31T10:42:36;153808.09;;;20.31;63.54
49341;BME280;35209;51.050;13.678;2023-07-31T10:47:45;153827.59;;;20.39;63.00
49341;BME280;35209;51.050;13.678;2023-07-31T10:52:52;153856.28;;;20.50;62.19
49341;BME280;35209;51.050;13.678;2023-07-31T10:57:56;153844.53;;;20.46;61.78
49341;BME280;35209;51.050;13.678;2023-07-31T11:03:10;153870.56;;;20.56;63.19
49341;BME280;35209;51.050;13.678;2023-07-31T11:08:23;153866.69;;;20.54;61.26
49341;BME280;35209;51.050;13.678;2023-07-31T11:13:25;153874.47;;;20.57;62.78
49341;BME280;35209;51.050;13.678;2023-07-31T11:18:27;153855.00;;;20.50;62.67
49341;BME280;35209;51.050;13.678;2023-07-31T11:23:30;153860.16;;;20.52;64.84
49341;BME280;35209;51.050;13.678;2023-07-31T11:28:33;153823.72;;;20.37;67.81
49341;BME280;35209;51.050;13.678;2023-07-31T11:33:35;153814.59;;;20.34;66.56
49341;BME280;35209;51.050;13.678;2023-07-31T11:38:37;153892.69;;;20.64;67.09
49341;BME280;35209;51.050;13.678;2023-07-31T11:43:39;154025.34;;;21.16;67.18
49341;BME280;35209;51.050;13.678;2023-07-31T11:48:41;154159.38;;;21.69;65.36
49341;BME280;35209;51.050;13.678;2023-07-31T11:53:45;154230.97;;;21.97;61.40
49341;BME280;35209;51.050;13.678;2023-07-31T11:58:53;154301.31;;;22.25;61.84
49341;BME280;35209;51.050;13.678;2023-07-31T12:03:55;154363.81;;;22.49;58.46
49341;BME280;35209;51.050;13.678;2023-07-31T12:09:03;154298.72;;;22.24;57.71
49341;BME280;35209;51.050;13.678;2023-07-31T12:14:05;154458.84;;;22.86;57.48
49341;BME280;35209;51.050;13.678;2023-07-31T12:19:07;154488.88;;;22.98;55.21
49341;BME280;35209;51.050;13.678;2023-07-31T12:24:08;154481.03;;;22.95;55.07
49341;BME280;35209;51.050;13.678;2023-07-31T12:29:10;154447.13;;;22.82;54.49
49341;BME280;35209;51.050;13.678;2023-07-31T12:34:18;154544.88;;;23.20;53.11
49341;BME280;35209;51.050;13.678;2023-07-31T12:39:20;154679.06;;;23.73;49.17
49341;BME280;35209;51.050;13.678;2023-07-31T12:44:22;154655.56;;;23.63;51.21
49341;BME280;35209;51.050;13.678;2023-07-31T12:49:23;154748.16;;;24.00;51.10
49341;BME280;35209;51.050;13.678;2023-07-31T12:54:25;154659.56;;;23.65;48.80
49341;BME280;35209;51.050;13.678;2023-07-31T12:59:27;154606.06;;;23.44;49.52
49341;BME280;35209;51.050;13.678;2023-07-31T13:04:28;154553.94;;;23.24;51.40
49341;BME280;35209;51.050;13.678;2023-07-31T13:09:30;154590.47;;;23.38;50.43
49341;BME280;35209;51.050;13.678;2023-07-31T13:14:32;154565.66;;;23.28;52.33
49341;BME280;35209;51.050;13.678;2023-07-31T13:19:34;154529.22;;;23.14;50.84
49341;BME280;35209;51.050;13.678;2023-07-31T13:24:35;154530.50;;;23.14;50.22
49341;BME280;35209;51.050;13.678;2023-07-31T13:29:37;154520.09;;;23.10;50.12
49341;BME280;35209;51.050;13.678;2023-07-31T13:34:39;154486.22;;;22.97;51.06
49341;BME280;35209;51.050;13.678;2023-07-31T13:39:41;154551.34;;;23.23;49.31
49341;BME280;35209;51.050;13.678;2023-07-31T13:44:43;154598.25;;;23.41;49.31
49341;BME280;35209;51.050;13.678;2023-07-31T13:49:45;154655.56;;;23.63;50.43
49341;BME280;35209;51.050;13.678;2023-07-31T13:54:49;154632.13;;;23.54;48.64
49341;BME280;35209;51.050;13.678;2023-07-31T13:59:51;154655.56;;;23.63;49.51
49341;BME280;35209;51.050;13.678;2023-07-31T14:04:53;154711.63;;;23.85;47.54
49341;BME280;35209;51.050;13.678;2023-07-31T14:09:55;154715.59;;;23.87;48.36
49341;BME280;35209;51.050;13.678;2023-07-31T14:14:56;154672.56;;;23.70;48.21
49341;BME280;35209;51.050;13.678;2023-07-31T14:19:58;154637.34;;;23.56;47.67
49341;BME280;35209;51.050;13.678;2023-07-31T14:25:01;154646.47;;;23.60;48.55
49341;BME280;35209;51.050;13.678;2023-07-31T14:30:03;154724.66;;;23.90;47.97
49341;BME280;35209;51.050;13.678;2023-07-31T14:35:06;154746.81;;;23.99;46.98
49341;BME280;35209;51.050;13.678;2023-07-31T14:40:08;154731.19;;;23.93;47.62
49341;BME280;35209;51.050;13.678;2023-07-31T14:45:10;154692.13;;;23.78;47.10
49341;BME280;35209;51.050;13.678;2023-07-31T14:50:12;154650.38;;;23.61;51.59
49341;BME280;35209;51.050;13.678;2023-07-31T14:55:14;154651.66;;;23.62;47.98
49341;BME280;35209;51.050;13.678;2023-07-31T15:00:16;154722.06;;;23.89;46.99
49341;BME280;35209;51.050;13.678;2023-07-31T15:05:18;154712.94;;;23.86;47.86
49341;BME280;35209;51.050;13.678;2023-07-31T15:10:20;154668.69;;;23.69;48.51
49341;BME280;35209;51.050;13.678;2023-07-31T15:15:26;154553.94;;;23.24;49.30
49341;BME280;35209;51.050;13.678;2023-07-31T15:21:09;154560.47;;;23.26;49.27
49341;BME280;35209;51.050;13.678;2023-07-31T15:26:11;154585.22;;;23.36;49.50
49341;BME280;35209;51.050;13.678;2023-07-31T15:31:13;154553.94;;;23.24;50.49
49341;BME280;35209;51.050;13.678;2023-07-31T15:36:17;154514.91;;;23.08;50.02
49341;BME280;35209;51.050;13.678;2023-07-31T15:41:19;154474.50;;;22.92;51.72
49341;BME280;35209;51.050;13.678;2023-07-31T15:46:23;154481.03;;;22.95;51.19
49341;BME280;35209;51.050;13.678;2023-07-31T15:51:24;154481.03;;;22.95;51.53
49341;BME280;35209;51.050;13.678;2023-07-31T15:56:26;154441.91;;;22.80;51.35
49341;BME280;35209;51.050;13.678;2023-07-31T16:01:28;154427.59;;;22.74;51.93
49341;BME280;35209;51.050;13.678;2023-07-31T16:06:30;154384.59;;;22.57;51.23
49341;BME280;35209;51.050;13.678;2023-07-31T16:11:32;154383.31;;;22.57;50.53
49341;BME280;35209;51.050;13.678;2023-07-31T16:16:33;154350.75;;;22.44;49.68
49341;BME280;35209;51.050;13.678;2023-07-31T16:21:35;154332.56;;;22.37;49.76
49341;BME280;35209;51.050;13.678;2023-07-31T16:26:37;154315.59;;;22.30;49.25
49341;BME280;35209;51.050;13.678;2023-07-31T16:31:40;154302.59;;;22.25;50.24
49341;BME280;35209;51.050;13.678;2023-07-31T16:36:57;154290.88;;;22.21;50.09
49341;BME280;35209;51.050;13.678;2023-07-31T16:41:59;154294.78;;;22.22;49.49
49341;BME280;35209;51.050;13.678;2023-07-31T16:47:01;154245.28;;;22.03;50.21
49341;BME280;35209;51.050;13.678;2023-07-31T16:52:03;154236.16;;;21.99;50.71
49341;BME280;35209;51.050;13.678;2023-07-31T16:57:05;154217.97;;;21.92;52.17
49341;BME280;35209;51.050;13.678;2023-07-31T17:02:07;154220.56;;;21.93;52.27
49341;BME280;35209;51.050;13.678;2023-07-31T17:07:10;154270.06;;;22.12;51.95
49341;BME280;35209;51.050;13.678;2023-07-31T17:12:12;154253.09;;;22.06;51.69
49341;BME280;35209;51.050;13.678;2023-07-31T17:17:13;154208.84;;;21.88;52.42
49341;BME280;35209;51.050;13.678;2023-07-31T17:22:15;154199.72;;;21.85;52.05
49341;BME280;35209;51.050;13.678;2023-07-31T17:27:17;154198.44;;;21.84;52.65
49341;BME280;35209;51.050;13.678;2023-07-31T17:32:18;154228.38;;;21.96;52.56
49341;BME280;35209;51.050;13.678;2023-07-31T17:37:24;154208.84;;;21.88;52.91
49341;BME280;35209;51.050;13.678;2023-07-31T17:42:26;154203.63;;;21.86;54.06
49341;BME280;35209;51.050;13.678;2023-07-31T17:47:28;154201.03;;;21.85;53.38
49341;BME280;35209;51.050;13.678;2023-07-31T17:52:30;154238.81;;;22.00;53.12
49341;BME280;35209;51.050;13.678;2023-07-31T17:57:31;154234.88;;;21.99;53.62
49341;BME280;35209;51.050;13.678;2023-07-31T18:02:33;154171.13;;;21.74;55.37
49341;BME280;35209;51.050;13.678;2023-07-31T18:07:37;154145.06;;;21.63;56.68
49341;BME280;35209;51.050;13.678;2023-07-31T18:12:39;154091.72;;;21.42;56.45
49341;BME280;35209;51.050;13.678;2023-07-31T18:17:40;154154.19;;;21.67;55.22
49341;BME280;35209;51.050;13.678;2023-07-31T18:22:42;154072.22;;;21.35;58.07
49341;BME280;35209;51.050;13.678;2023-07-31T18:27:44;154078.72;;;21.37;57.21
49341;BME280;35209;51.050;13.678;2023-07-31T18:32:46;154038.34;;;21.22;58.84
49341;BME280;35209;51.050;13.678;2023-07-31T18:37:47;153975.91;;;20.97;60.05
49341;BME280;35209;51.050;13.678;2023-07-31T18:42:49;153918.69;;;20.75;61.82
49341;BME280;35209;51.050;13.678;2023-07-31T18:47:51;153891.38;;;20.64;62.35
49341;BME280;35209;51.050;13.678;2023-07-31T18:52:53;153878.38;;;20.59;63.50
49341;BME280;35209;51.050;13.678;2023-07-31T18:57:55;153890.09;;;20.63;62.48
49341;BME280;35209;51.050;13.678;2023-07-31T19:02:57;153886.16;;;20.62;64.21
49341;BME280;35209;51.050;13.678;2023-07-31T19:07:58;153922.59;;;20.76;62.34
49341;BME280;35209;51.050;13.678;2023-07-31T19:13:06;153864.06;;;20.53;63.33
49341;BME280;35209;51.050;13.678;2023-07-31T19:18:08;153831.50;;;20.40;64.05
49341;BME280;35209;51.050;13.678;2023-07-31T19:23:10;153855.00;;;20.50;64.72
49341;BME280;35209;51.050;13.678;2023-07-31T19:28:12;153853.66;;;20.49;64.88
49341;BME280;35209;51.050;13.678;2023-07-31T19:33:15;153845.81;;;20.46;63.96
49341;BME280;35209;51.050;13.678;2023-07-31T19:38:17;153809.38;;;20.32;65.47
49341;BME280;35209;51.050;13.678;2023-07-31T19:43:18;153765.22;;;20.14;66.12
49341;BME280;35209;51.050;13.678;2023-07-31T19:48:21;153813.31;;;20.33;63.40
49341;BME280;35209;51.050;13.678;2023-07-31T19:53:23;153784.69;;;20.22;66.92
49341;BME280;35209;51.050;13.678;2023-07-31T19:58:25;153727.50;;;20.00;67.78
49341;BME280;35209;51.050;13.678;2023-07-31T20:03:27;153697.63;;;19.88;68.59
49341;BME280;35209;51.050;13.678;2023-07-31T20:08:28;153695.00;;;19.87;69.10
49341;BME280;35209;51.050;13.678;2023-07-31T20:13:30;153678.13;;;19.80;70.65
49341;BME280;35209;51.050;13.678;2023-07-31T20:18:32;153657.31;;;19.72;70.72
49341;BME280;35209;51.050;13.678;2023-07-31T20:23:34;153674.19;;;19.79;69.24
49341;BME280;35209;51.050;13.678;2023-07-31T20:28:44;153730.09;;;20.01;66.02
49341;BME280;35209;51.050;13.678;2023-07-31T20:33:46;153769.13;;;20.16;63.87
49341;BME280;35209;51.050;13.678;2023-07-31T20:38:48;153809.38;;;20.32;62.80
49341;BME280;35209;51.050;13.678;2023-07-31T20:43:50;153812.03;;;20.33;62.16
49341;BME280;35209;51.050;13.678;2023-07-31T20:48:52;153822.44;;;20.37;62.08
49341;BME280;35209;51.050;13.678;2023-07-31T20:53:53;153843.19;;;20.45;61.59
49341;BME280;35209;51.050;13.678;2023-07-31T20:58:55;153886.16;;;20.62;60.69
49341;BME280;35209;51.050;13.678;2023-07-31T21:03:57;153879.69;;;20.59;60.10
49341;BME280;35209;51.050;13.678;2023-07-31T21:08:59;153869.28;;;20.55;60.94
49341;BME280;35209;51.050;13.678;2023-07-31T21:14:01;153849.75;;;20.48;61.17
49341;BME280;35209;51.050;13.678;2023-07-31T21:19:03;153845.81;;;20.46;61.13
49341;BME280;35209;51.050;13.678;2023-07-31T21:24:04;153817.19;;;20.35;61.40
49341;BME280;35209;51.050;13.678;2023-07-31T21:29:06;153783.41;;;20.22;62.05
49341;BME280;35209;51.050;13.678;2023-07-31T21:34:08;153765.22;;;20.14;63.50
49341;BME280;35209;51.050;13.678;2023-07-31T21:39:10;153796.38;;;20.27;61.64
49341;BME280;35209;51.050;13.678;2023-07-31T21:44:12;153789.91;;;20.24;62.08
49341;BME280;35209;51.050;13.678;2023-07-31T21:49:14;153763.88;;;20.14;62.62
49341;BME280;35209;51.050;13.678;2023-07-31T21:54:16;153783.41;;;20.22;62.05
49341;BME280;35209;51.050;13.678;2023-07-31T21:59:17;153788.63;;;20.24;61.91
49341;BME280;35209;51.050;13.678;2023-07-31T22:04:19;153814.59;;;20.34;61.19
49341;BME280;35209;51.050;13.678;2023-07-31T22:09:22;153825.03;;;20.38;61.51
49341;BME280;35209;51.050;13.678;2023-07-31T22:14:24;153804.22;;;20.30;61.97
49341;BME280;35209;51.050;13.678;2023-07-31T22:19:25;153819.78;;;20.36;61.50
49341;BME280;35209;51.050;13.678;2023-07-31T22:24:27;153828.91;;;20.39;61.36
49341;BME280;35209;51.050;13.678;2023-07-31T22:29:29;153825.03;;;20.38;61.58
49341;BME280;35209;51.050;13.678;2023-07-31T22:34:31;153839.31;;;20.44;62.10
49341;BME280;35209;51.050;13.678;2023-07-31T22:39:33;153861.47;;;20.52;61.33
49341;BME280;35209;51.050;13.678;2023-07-31T22:44:36;153825.03;;;20.38;62.28
49341;BME280;35209;51.050;13.678;2023-07-31T22:49:38;153835.44;;;20.42;62.06
49341;BME280;35209;51.050;13.678;2023-07-31T22:54:40;153825.03;;;20.38;63.45
49341;BME280;35209;51.050;13.678;2023-07-31T22:59:42;153814.59;;;20.34;63.72
49341;BME280;35209;51.050;13.678;2023-07-31T23:04:44;153760.00;;;20.12;64.91
49341;BME280;35209;51.050;13.678;2023-07-31T23:09:46;153760.00;;;20.12;66.10
49341;BME280;35209;51.050;13.678;2023-07-31T23:14:48;153695.00;;;19.87;68.01
49341;BME280;35209;51.050;13.678;2023-07-31T23:19:49;153680.72;;;19.81;69.78
49341;BME280;35209;51.050;13.678;2023-07-31T23:24:52;153632.66;;;19.62;74.04
49341;BME280;35209;51.050;13.678;2023-07-31T23:29:54;153593.59;;;19.47;75.54
49341;BME280;35209;51.050;13.678;2023-07-31T23:34:56;153526.03;;;19.21;78.14
49341;BME280;35209;51.050;13.678;2023-07-31T23:39:57;153522.13;;;19.19;78.12
49341;BME280;35209;51.050;13.678;2023-07-31T23:44:59;153496.19;;;19.09;79.49
49341;BME280;35209;51.050;13.678;2023-07-31T23:50:12;153462.41;;;18.96;81.41
49341;BME280;35209;51.050;13.678;2023-07-31T23:55:17;153427.34;;;18.82;83.67
